Time;durP1;ratioP1;P1;durP2;ratioP2;P2;SDS_P1;SDS_P2;PMS_P1;PMS_P2;Temp;Humidity;BMP_temperature;BMP_pressure;BME280_temperature;BME280_humidity;BME280_pressure;Samples;Min_cycle;Max_cycle;Signal;HPM_P1;HPM_P2
2022/06/03 00:00:19;;;;;;;3.27;1.10;;;16.50;99.90;;;;;;5051425;28;20178;-56
2022/06/03 00:03:06;;;;;;;1.57;1.30;;;16.50;99.90;;;;;;5051111;28;20707;-57
2022/06/03 00:05:50;;;;;;;2.57;1.07;;;16.40;99.90;;;;;;5051169;28;20167;-56
2022/06/03 00:08:47;;;;;;;1.33;1.23;;;16.40;99.90;;;;;;5051743;28;20630;-54
2022/06/03 00:11:27;;;;;;;4.77;3.00;;;16.40;99.90;;;;;;5067323;28;20162;-54
2022/06/03 00:13:59;;;;;;;22.87;15.13;;;16.40;99.90;;;;;;5071463;28;20314;-55
2022/06/03 00:16:46;;;;;;;19.60;14.30;;;16.50;99.90;;;;;;5072243;28;20166;-54
2022/06/03 00:19:27;;;;;;;19.97;14.50;;;16.50;99.90;;;;;;5075188;28;20185;-57
2022/06/03 00:22:14;;;;;;;19.13;14.97;;;16.50;99.90;;;;;;5074800;28;20177;-54
2022/06/03 00:25:00;;;;;;;22.37;15.33;;;16.50;99.90;;;;;;5074504;28;20233;-54
2022/06/03 00:27:47;;;;;;;22.37;15.27;;;16.50;99.90;;;;;;5074747;28;20166;-54
2022/06/03 00:30:47;;;;;;;22.13;15.70;;;16.50;99.90;;;;;;5075003;28;20179;-54
2022/06/03 00:33:32;;;;;;;18.43;15.23;;;16.50;99.90;;;;;;5074785;28;20229;-55
2022/06/03 00:36:03;;;;;;;20.40;15.67;;;16.50;99.90;;;;;;5074449;28;20608;-54
2022/06/03 00:39:13;;;;;;;23.97;15.63;;;16.50;99.90;;;;;;5074270;28;20166;-56
2022/06/03 00:41:59;;;;;;;23.97;16.90;;;16.50;99.90;;;;;;5051029;28;20225;-54
2022/06/03 00:44:41;;;;;;;23.10;16.63;;;16.50;99.90;;;;;;5073160;28;20268;-54
2022/06/03 00:47:28;;;;;;;27.30;17.67;;;16.40;99.90;;;;;;5074296;28;20188;-54
2022/06/03 00:50:18;;;;;;;27.10;17.77;;;16.40;99.90;;;;;;5073428;28;20184;-54
2022/06/03 00:53:02;;;;;;;21.07;16.47;;;16.40;99.90;;;;;;5054140;28;20214;-54
2022/06/03 00:55:58;;;;;;;25.07;17.47;;;16.40;99.90;;;;;;5054349;28;20650;-54
2022/06/03 00:58:33;;;;;;;28.03;18.63;;;16.40;99.90;;;;;;5054254;28;20174;-54
2022/06/03 01:01:08;;;;;;;28.10;18.73;;;16.40;99.90;;;;;;5054318;28;20263;-56
2022/06/03 01:04:11;;;;;;;27.50;17.63;;;16.30;99.90;;;;;;5054038;28;20190;-55
2022/06/03 01:07:08;;;;;;;29.03;17.67;;;16.30;99.90;;;;;;5053970;28;20174;-54
2022/06/03 01:09:55;;;;;;;22.80;16.10;;;16.30;99.90;;;;;;5056418;28;20229;-53
2022/06/03 01:12:32;;;;;;;21.73;16.97;;;16.30;99.90;;;;;;5074111;28;20219;-53
2022/06/03 01:15:05;;;;;;;25.63;18.27;;;16.30;99.90;;;;;;5074188;28;20614;-51
2022/06/03 01:17:37;;;;;;;26.43;17.43;;;16.30;99.90;;;;;;5073973;28;20202;-52
2022/06/03 01:20:28;;;;;;;21.77;17.37;;;16.20;99.90;;;;;;5073679;28;20246;-53
2022/06/03 01:23:24;;;;;;;24.90;18.07;;;16.30;99.90;;;;;;5073346;28;20227;-53
2022/06/03 01:26:18;;;;;;;24.10;18.30;;;16.20;99.90;;;;;;5073874;28;20181;-53
2022/06/03 01:28:52;;;;;;;22.37;16.13;;;16.20;99.90;;;;;;5072519;28;20178;-54
2022/06/03 01:31:37;;;;;;;25.50;17.03;;;16.30;99.90;;;;;;5074091;28;20567;-53
2022/06/03 01:34:20;;;;;;;22.77;16.97;;;16.30;99.90;;;;;;5073728;28;20558;-54
2022/06/03 01:37:01;;;;;;;23.53;16.67;;;16.30;99.90;;;;;;5073452;28;20245;-53
2022/06/03 01:39:27;;;;;;;25.83;17.33;;;16.30;99.90;;;;;;5073308;28;20570;-54
2022/06/03 01:42:17;;;;;;;21.73;16.73;;;16.30;99.90;;;;;;5073510;28;20257;-54
2022/06/03 01:45:21;;;;;;;26.97;17.33;;;16.30;99.90;;;;;;5073445;28;20172;-52
2022/06/03 01:48:06;;;;;;;23.20;16.53;;;16.30;99.90;;;;;;5063577;28;20188;-54
2022/06/03 01:51:01;;;;;;;22.90;16.43;;;16.30;99.90;;;;;;5066896;28;20208;-55
2022/06/03 01:53:48;;;;;;;25.50;19.83;;;16.30;99.90;;;;;;5037458;28;20218;-53
2022/06/03 01:56:44;;;;;;;23.57;17.40;;;16.30;99.90;;;;;;5053221;28;20169;-54
2022/06/03 01:59:37;;;;;;;22.63;16.57;;;16.30;99.90;;;;;;5053246;28;20258;-53
2022/06/03 02:02:17;;;;;;;19.77;16.30;;;16.30;99.90;;;;;;5052951;28;20171;-55
2022/06/03 02:04:58;;;;;;;30.90;17.33;;;16.20;99.90;;;;;;5052644;28;20201;-54
2022/06/03 02:07:56;;;;;;;23.00;16.20;;;16.20;99.90;;;;;;5045205;28;20269;-53
2022/06/03 02:10:39;;;;;;;19.87;15.60;;;16.20;99.90;;;;;;5051079;28;20174;-52
2022/06/03 02:13:13;;;;;;;20.67;14.70;;;16.20;99.90;;;;;;5073119;28;20224;-50
2022/06/03 02:16:04;;;;;;;23.23;14.90;;;16.20;99.90;;;;;;5072500;28;20234;-52
2022/06/03 02:18:59;;;;;;;19.27;14.37;;;16.20;99.90;;;;;;5072659;28;20227;-51
2022/06/03 02:21:34;;;;;;;24.50;14.53;;;16.20;99.90;;;;;;5072687;28;20629;-54
2022/06/03 02:24:18;;;;;;;17.93;13.60;;;16.20;99.90;;;;;;5072105;28;20762;-53
2022/06/03 02:27:05;;;;;;;17.30;13.93;;;16.20;99.90;;;;;;5072240;28;20173;-52
2022/06/03 02:33:01;;;;;;;16.97;11.90;;;16.10;99.90;;;;;;5071878;28;20173;-53
2022/06/03 02:35:54;;;;;;;18.40;13.57;;;16.10;99.90;;;;;;5072171;28;20607;-62
2022/06/03 02:38:25;;;;;;;17.70;12.37;;;16.10;99.90;;;;;;5072376;28;20173;-52
2022/06/03 02:40:54;;;;;;;20.03;12.33;;;16.10;99.90;;;;;;5071405;28;20184;-53
2022/06/03 02:43:26;;;;;;;15.77;11.90;;;16.10;99.90;;;;;;5072280;28;20666;-53
2022/06/03 02:46:10;;;;;;;21.63;12.23;;;16.20;99.90;;;;;;5071955;28;20196;-52
2022/06/03 02:48:59;;;;;;;24.57;12.33;;;16.10;99.90;;;;;;5071832;28;20582;-53
2022/06/03 02:51:58;;;;;;;18.60;10.93;;;16.20;99.90;;;;;;5036889;28;20191;-49
2022/06/03 02:54:48;;;;;;;12.03;10.40;;;16.10;99.90;;;;;;5051997;28;20198;-52
2022/06/03 02:57:29;;;;;;;15.23;11.07;;;16.10;99.90;;;;;;5052142;28;20228;-51
2022/06/03 03:00:16;;;;;;;13.33;11.10;;;16.10;99.90;;;;;;5052211;28;20170;-53
2022/06/03 03:03:23;;;;;;;17.23;11.00;;;16.10;99.90;;;;;;5051857;28;20174;-53
2022/06/03 03:06:14;;;;;;;17.30;11.87;;;16.10;99.90;;;;;;5035325;28;20677;-54
2022/06/03 03:08:58;;;;;;;12.50;10.67;;;16.10;99.90;;;;;;5051296;28;20633;-53
2022/06/03 03:11:31;;;;;;;15.53;10.17;;;16.10;99.90;;;;;;5069225;28;20178;-55
2022/06/03 03:14:15;;;;;;;13.23;9.27;;;16.10;99.90;;;;;;5071612;28;20555;-55
2022/06/03 03:17:11;;;;;;;15.93;9.60;;;16.10;99.90;;;;;;5071738;28;20269;-53
2022/06/03 03:20:04;;;;;;;13.83;9.90;;;16.10;99.90;;;;;;5071963;28;20213;-54
2022/06/03 03:22:44;;;;;;;11.57;9.27;;;16.00;99.90;;;;;;5071513;28;20204;-58
2022/06/03 03:25:27;;;;;;;14.17;9.80;;;15.90;99.90;;;;;;5071412;28;20649;-54
2022/06/03 03:27:52;;;;;;;16.30;10.23;;;15.90;99.90;;;;;;5071541;28;20234;-53
2022/06/03 03:30:39;;;;;;;11.77;10.03;;;15.80;99.90;;;;;;5071791;28;20188;-54
2022/06/03 03:33:26;;;;;;;18.80;10.37;;;15.90;99.90;;;;;;5071320;28;20354;-55
2022/06/03 03:36:15;;;;;;;11.80;9.20;;;15.90;99.90;;;;;;5071298;28;20170;-53
2022/06/03 03:39:15;;;;;;;14.67;9.80;;;15.90;99.90;;;;;;5071245;28;20215;-53
2022/06/03 03:42:01;;;;;;;12.23;8.83;;;15.80;99.90;;;;;;5071355;28;20769;-51
2022/06/03 03:44:42;;;;;;;23.67;9.23;;;15.80;99.90;;;;;;5071546;28;20196;-54
2022/06/03 03:47:45;;;;;;;18.47;8.70;;;15.90;99.90;;;;;;5071128;28;20169;-55
2022/06/03 03:50:33;;;;;;;15.47;9.20;;;15.90;99.90;;;;;;5067673;28;20242;-54
2022/06/03 03:53:31;;;;;;;15.87;8.73;;;15.90;99.90;;;;;;5054066;28;20571;-55
2022/06/03 03:56:09;;;;;;;12.97;7.60;;;16.00;99.90;;;;;;5055212;28;20169;-53
2022/06/03 03:58:40;;;;;;;11.60;7.00;;;16.00;99.90;;;;;;5054666;28;20637;-53
2022/06/03 04:01:33;;;;;;;13.50;6.27;;;16.10;99.90;;;;;;5054893;28;20170;-52
2022/06/03 04:04:32;;;;;;;16.60;7.00;;;16.10;99.90;;;;;;5054832;28;20221;-52
2022/06/03 04:07:10;;;;;;;10.03;6.33;;;16.20;99.90;;;;;;5053766;28;20185;-55
2022/06/03 04:09:54;;;;;;;10.37;6.20;;;16.20;99.90;;;;;;5056995;28;20202;-56
2022/06/03 04:12:26;;;;;;;10.37;5.57;;;16.40;99.90;;;;;;5074261;28;20637;-52
2022/06/03 04:15:11;;;;;;;10.03;5.90;;;16.40;99.90;;;;;;5074422;28;20185;-54
2022/06/03 04:17:57;;;;;;;10.63;5.47;;;16.40;99.90;;;;;;5074469;28;20165;-55
2022/06/03 04:20:38;;;;;;;13.03;5.13;;;16.50;99.90;;;;;;5073483;28;20598;-53
2022/06/03 04:23:17;;;;;;;12.27;7.00;;;16.70;99.90;;;;;;5073950;28;20658;-53
2022/06/03 04:25:43;;;;;;;9.07;4.67;;;16.80;99.90;;;;;;5074142;28;20252;-53
2022/06/03 04:28:35;;;;;;;18.93;5.73;;;16.90;99.90;;;;;;5073945;28;20209;-57
2022/06/03 04:31:48;;;;;;;12.27;4.87;;;16.90;99.90;;;;;;5073709;28;20177;-55
2022/06/03 04:34:57;;;;;;;12.47;5.93;;;17.00;99.90;;;;;;5031126;28;20242;-54
2022/06/03 04:38:02;;;;;;;7.10;4.33;;;16.90;99.90;;;;;;5074023;28;20174;-53
2022/06/03 04:41:05;;;;;;;28.73;11.63;;;16.80;99.90;;;;;;5073876;28;20252;-54
2022/06/03 04:44:08;;;;;;;10.63;5.10;;;16.80;99.90;;;;;;5073209;28;20238;-54
2022/06/03 04:46:58;;;;;;;10.07;5.53;;;16.90;99.90;;;;;;5073437;28;20241;-54
2022/06/03 04:49:24;;;;;;;11.90;6.20;;;17.00;99.90;;;;;;5072616;28;20174;-55
2022/06/03 04:52:10;;;;;;;9.13;4.87;;;17.00;99.90;;;;;;5053907;28;20583;-53
2022/06/03 04:55:08;;;;;;;12.53;4.70;;;17.10;99.90;;;;;;5050885;28;20213;-57
2022/06/03 04:58:11;;;;;;;6.70;4.23;;;17.10;99.90;;;;;;5052497;28;20195;-53
2022/06/03 05:00:56;;;;;;;5.73;3.80;;;17.10;99.90;;;;;;5053062;28;20165;-57
2022/06/03 05:03:27;;;;;;;15.10;4.47;;;17.20;99.90;;;;;;5051888;28;20217;-55
2022/06/03 05:06:01;;;;;;;9.17;4.70;;;17.10;99.90;;;;;;5052215;28;20556;-61
2022/06/03 05:08:36;;;;;;;10.17;5.07;;;17.30;99.90;;;;;;5052181;28;20202;-59
2022/06/03 05:11:08;;;;;;;6.53;4.00;;;17.50;99.90;;;;;;5067530;28;20213;-59
2022/06/03 05:14:11;;;;;;;11.97;5.07;;;17.50;99.90;;;;;;5072903;28;20282;-60
2022/06/03 05:17:17;;;;;;;4.80;3.60;;;17.60;99.90;;;;;;5072683;28;20222;-63
2022/06/03 05:20:11;;;;;;;10.87;3.80;;;17.50;99.90;;;;;;5059740;28;20193;-60
2022/06/03 05:23:14;;;;;;;6.10;3.80;;;17.80;99.90;;;;;;5055922;28;20189;-65
2022/06/03 05:25:51;;;;;;;5.20;3.60;;;18.00;99.90;;;;;;5049045;28;20284;-60
2022/06/03 05:28:40;;;;;;;8.10;3.77;;;18.00;99.90;;;;;;5064875;28;20189;-60
2022/06/03 05:31:27;;;;;;;10.50;4.17;;;18.00;99.90;;;;;;5070963;28;20340;-60
2022/06/03 05:34:39;;;;;;;14.40;4.00;;;18.00;99.90;;;;;;5058998;28;20230;-58
2022/06/03 05:37:18;;;;;;;10.50;4.53;;;18.00;99.90;;;;;;5060642;28;20194;-57
2022/06/03 05:40:10;;;;;;;11.80;3.90;;;17.90;99.90;;;;;;5059435;28;20551;-61
2022/06/03 05:43:00;;;;;;;10.27;3.63;;;17.90;99.90;;;;;;5060509;28;20268;-60
2022/06/03 05:45:59;;;;;;;6.60;2.83;;;18.10;99.90;;;;;;5060591;28;20180;-61
2022/06/03 05:48:56;;;;;;;8.33;4.30;;;18.10;99.90;;;;;;5060666;28;20182;-56
2022/06/03 05:51:24;;;;;;;17.93;4.37;;;18.30;99.90;;;;;;5060340;28;20236;-59
2022/06/03 05:54:01;;;;;;;9.30;4.07;;;18.60;99.90;;;;;;5060135;28;20550;-59
2022/06/03 05:56:52;;;;;;;6.45;2.95;;;18.90;99.90;;;;;;5059678;28;20192;-58
2022/06/03 05:59:48;;;;;;;10.85;4.07;;;18.90;99.90;;;;;;5060968;28;20190;-60
2022/06/03 06:02:39;;;;;;;6.85;3.53;;;19.10;99.90;;;;;;5060438;28;20183;-64
2022/06/03 06:05:29;;;;;;;5.53;3.17;;;19.00;99.90;;;;;;5060503;28;20221;-52
2022/06/03 06:08:11;;;;;;;4.45;2.63;;;18.90;99.90;;;;;;5060688;28;20193;-59
2022/06/03 06:10:45;;;;;;;6.57;3.05;;;18.70;99.90;;;;;;5061197;28;20180;-59
2022/06/03 06:13:32;;;;;;;6.28;3.58;;;18.90;99.90;;;;;;5060535;28;20213;-60
2022/06/03 06:16:07;;;;;;;11.40;3.20;;;19.00;99.90;;;;;;5058698;28;20644;-59
2022/06/03 06:18:41;;;;;;;4.72;3.38;;;19.30;99.90;;;;;;5060774;28;20192;-60
2022/06/03 06:21:39;;;;;;;17.08;4.22;;;19.20;99.90;;;;;;5059094;28;20235;-61
2022/06/03 06:24:14;;;;;;;6.22;3.72;;;19.40;99.90;;;;;;5060140;28;20324;-58
2022/06/03 06:26:58;;;;;;;6.35;3.25;;;19.90;99.90;;;;;;5060205;28;20182;-61
2022/06/03 06:29:46;;;;;;;10.05;3.60;;;20.00;99.90;;;;;;5059165;28;20189;-61
2022/06/03 06:32:31;;;;;;;9.77;4.13;;;20.20;99.90;;;;;;5059831;28;20206;-62
2022/06/03 06:35:55;;;;;;;25.60;14.00;;;20.20;99.90;;;;;;5055707;28;20277;-60
2022/06/03 06:38:42;;;;;;;9.88;3.35;;;20.30;99.90;;;;;;5060929;28;20228;-60
2022/06/03 06:41:30;;;;;;;8.88;3.28;;;20.10;99.90;;;;;;5059396;28;20562;-60
2022/06/03 06:44:11;;;;;;;9.13;3.60;;;19.90;99.90;;;;;;5058110;28;20189;-62
2022/06/03 06:46:54;;;;;;;7.25;3.30;;;19.90;99.90;;;;;;5058294;28;20197;-59
2022/06/03 06:49:36;;;;;;;5.38;2.60;;;19.90;99.90;;;;;;5059149;28;20182;-59
2022/06/03 06:52:43;;;;;;;9.27;2.83;;;20.00;99.90;;;;;;5057282;28;20182;-59
2022/06/03 06:55:19;;;;;;;6.40;3.17;;;19.70;99.90;;;;;;5050830;28;20274;-61
2022/06/03 06:57:46;;;;;;;8.32;3.17;;;19.60;99.90;;;;;;5058603;28;20215;-59
2022/06/03 07:00:25;;;;;;;10.60;3.75;;;19.80;99.90;;;;;;5057901;28;20212;-59
2022/06/03 07:03:25;;;;;;;8.15;2.92;;;20.00;99.90;;;;;;5058878;28;20193;-61
2022/06/03 07:05:54;;;;;;;9.93;2.92;;;20.10;99.90;;;;;;5059873;28;20197;-61
2022/06/03 07:08:33;;;;;;;8.57;2.45;;;20.40;99.90;;;;;;5059639;28;20256;-58
2022/06/03 07:11:23;;;;;;;4.45;2.28;;;20.50;99.10;;;;;;5059127;28;20189;-62
2022/06/03 07:13:55;;;;;;;5.95;2.90;;;20.60;99.90;;;;;;5058918;28;20236;-62
2022/06/03 07:19:49;;;;;;;12.30;3.40;;;20.60;98.80;;;;;;5060003;28;20703;-62
2022/06/03 07:22:36;;;;;;;6.07;3.10;;;20.60;98.50;;;;;;5058333;28;20610;-63
2022/06/03 07:25:19;;;;;;;6.22;3.13;;;20.80;99.30;;;;;;5060543;28;20232;-63
2022/06/03 07:28:04;;;;;;;7.97;3.70;;;21.10;98.30;;;;;;5061476;28;20203;-59
2022/06/03 07:31:09;;;;;;;5.53;2.28;;;21.20;98.40;;;;;;5063141;28;20223;-59
2022/06/03 07:33:55;;;;;;;5.15;2.30;;;20.70;96.30;;;;;;5062870;28;20251;-62
2022/06/03 07:36:29;;;;;;;7.00;3.08;;;20.50;97.80;;;;;;5063507;28;20189;-61
2022/06/03 07:38:59;;;;;;;4.03;2.90;;;20.50;99.90;;;;;;5063737;28;20181;-59
2022/06/03 07:42:04;;;;;;;4.10;2.88;;;20.60;99.90;;;;;;5063804;28;20294;-60
2022/06/03 07:44:44;;;;;;;11.73;2.40;;;20.90;99.90;;;;;;5049715;28;20229;-60
2022/06/03 07:47:11;;;;;;;5.10;2.40;;;20.90;97.90;;;;;;5062085;28;20201;-60
2022/06/03 07:49:38;;;;;;;2.55;2.10;;;21.20;96.10;;;;;;5061521;28;20197;-58
2022/06/03 07:52:11;;;;;;;10.90;2.90;;;21.30;92.70;;;;;;5062895;28;20583;-60
2022/06/03 07:54:40;;;;;;;5.80;2.33;;;21.20;95.50;;;;;;5063297;28;20214;-59
2022/06/03 07:57:19;;;;;;;7.85;2.30;;;21.40;94.70;;;;;;5062851;28;20174;-59
2022/06/03 07:59:45;;;;;;;8.82;2.90;;;22.10;93.90;;;;;;5063055;28;20711;-60
2022/06/03 08:02:22;;;;;;;3.33;2.00;;;22.50;93.60;;;;;;5062944;28;20182;-59
2022/06/03 08:04:59;;;;;;;5.30;1.95;;;22.20;91.30;;;;;;5063282;28;20633;-60
2022/06/03 08:13:05;;;;;;;7.05;3.05;;;21.90;86.80;;;;;;5061878;28;20271;-60
2022/06/03 08:15:35;;;;;;;6.82;3.08;;;22.00;89.50;;;;;;5062863;28;20246;-64
2022/06/03 08:18:05;;;;;;;5.35;2.25;;;22.20;89.40;;;;;;5062943;28;20193;-58
2022/06/03 08:21:00;;;;;;;4.22;2.58;;;22.00;89.60;;;;;;5062519;28;20273;-60
2022/06/03 08:23:30;;;;;;;8.75;3.25;;;21.90;88.60;;;;;;5059956;28;20689;-59
2022/06/03 08:25:59;;;;;;;31.52;3.83;;;22.00;90.70;;;;;;5062306;28;20265;-58
2022/06/03 08:28:31;;;;;;;5.50;2.58;;;22.10;91.80;;;;;;5063829;28;20209;-60
2022/06/03 08:31:00;;;;;;;5.88;2.92;;;21.90;90.80;;;;;;5062644;28;20247;-60
2022/06/03 08:33:54;;;;;;;9.73;2.38;;;21.70;90.40;;;;;;5061543;28;20700;-59
2022/06/03 08:36:27;;;;;;;2.88;2.03;;;21.30;92.00;;;;;;5060370;28;20263;-62
2022/06/03 08:39:12;;;;;;;3.08;2.30;;;21.00;90.80;;;;;;5061945;28;20617;-61
2022/06/03 08:41:43;;;;;;;4.97;2.65;;;20.90;91.70;;;;;;5063344;28;20208;-59
2022/06/03 08:44:21;;;;;;;9.40;2.42;;;20.90;92.70;;;;;;5062103;28;20207;-62
2022/06/03 08:47:15;;;;;;;7.35;3.42;;;21.00;91.70;;;;;;5062181;28;20638;-63
2022/06/03 08:49:55;;;;;;;6.18;2.58;;;21.10;90.50;;;;;;5062219;28;20174;-61
2022/06/03 08:52:36;;;;;;;5.97;2.65;;;21.20;89.40;;;;;;5062019;28;20641;-58
2022/06/03 08:55:14;;;;;;;15.65;3.05;;;21.30;89.10;;;;;;5062050;28;20262;-61
2022/06/03 08:57:45;;;;;;;5.65;2.47;;;21.30;88.60;;;;;;5061650;28;20512;-55
2022/06/03 09:00:11;;;;;;;6.70;2.70;;;21.30;89.50;;;;;;5061424;28;20641;-55
2022/06/03 09:02:51;;;;;;;3.80;2.38;;;21.30;90.90;;;;;;5061179;28;20251;-59
2022/06/03 09:05:52;;;;;;;5.82;2.00;;;21.20;89.50;;;;;;5060352;28;20547;-56
2022/06/03 09:08:30;;;;;;;3.40;2.22;;;21.20;90.90;;;;;;5062421;28;20265;-52
2022/06/03 09:10:59;;;;;;;6.47;2.55;;;21.10;90.20;;;;;;5061099;28;20192;-61
2022/06/03 09:13:51;;;;;;;3.67;2.03;;;21.10;90.20;;;;;;5061053;28;20214;-61
2022/06/03 09:16:18;;;;;;;5.05;2.53;;;21.00;90.10;;;;;;5061113;28;20665;-61
2022/06/03 09:18:53;;;;;;;15.60;3.95;;;20.80;90.90;;;;;;5059707;28;20604;-65
2022/06/03 09:21:33;;;;;;;7.13;2.85;;;20.90;91.10;;;;;;5062588;28;20185;-59
2022/06/03 09:24:19;;;;;;;5.10;2.72;;;20.90;91.60;;;;;;5060992;28;20229;-58
2022/06/03 09:26:50;;;;;;;7.93;2.67;;;21.00;91.10;;;;;;5061195;28;20269;-65
2022/06/03 09:29:17;;;;;;;4.50;2.83;;;21.30;91.30;;;;;;5061149;28;20248;-60
2022/06/03 09:31:58;;;;;;;6.70;2.80;;;21.40;91.10;;;;;;5059613;28;20263;-62
2022/06/03 09:34:41;;;;;;;6.47;2.53;;;21.50;91.50;;;;;;5060747;28;20313;-60
2022/06/03 09:37:14;;;;;;;4.38;2.20;;;21.60;90.90;;;;;;5060274;28;20178;-60
2022/06/03 09:39:44;;;;;;;6.28;2.70;;;21.80;91.30;;;;;;5061449;28;20186;-58
2022/06/03 09:42:12;;;;;;;6.45;2.40;;;21.90;90.00;;;;;;5061176;28;20185;-57
2022/06/03 09:44:39;;;;;;;3.45;2.65;;;22.10;87.30;;;;;;5060540;28;20220;-60
2022/06/03 09:47:07;;;;;;;11.00;2.53;;;22.00;85.70;;;;;;5060891;28;20273;-61
2022/06/03 09:49:33;;;;;;;5.28;2.83;;;22.00;87.30;;;;;;5059149;28;20221;-65
2022/06/03 09:52:01;;;;;;;6.82;3.50;;;22.20;86.90;;;;;;5060498;28;20189;-62
2022/06/03 09:54:32;;;;;;;12.57;2.85;;;22.30;86.80;;;;;;5060926;28;20219;-62
2022/06/03 09:57:11;;;;;;;3.00;2.38;;;22.40;84.70;;;;;;5061286;28;20195;-59
2022/06/03 09:59:39;;;;;;;4.65;2.58;;;22.10;85.50;;;;;;5060576;28;20180;-57
2022/06/03 10:02:07;;;;;;;4.45;2.60;;;22.00;86.90;;;;;;5059834;28;20189;-57
2022/06/03 10:04:33;;;;;;;3.40;2.40;;;22.10;87.20;;;;;;5060044;28;20198;-53
2022/06/03 10:07:00;;;;;;;6.18;2.80;;;22.10;86.40;;;;;;5060840;28;20544;-56
2022/06/03 10:17:55;;;;;;;7.82;2.47;;;22.40;85.40;;;;;;5059744;28;20748;-60
2022/06/03 10:20:21;;;;;;;13.45;3.40;;;22.40;87.20;;;;;;5058576;28;20268;-61
2022/06/03 10:22:48;;;;;;;6.28;2.85;;;22.50;88.50;;;;;;5059357;28;20636;-72
2022/06/03 10:25:15;;;;;;;4.05;2.60;;;22.80;88.00;;;;;;5060571;28;20185;-63
2022/06/03 10:27:42;;;;;;;10.63;3.53;;;22.90;86.40;;;;;;5060992;28;20185;-60
2022/06/03 10:30:08;;;;;;;4.65;2.33;;;23.00;86.80;;;;;;5059743;28;20185;-60
2022/06/03 10:32:36;;;;;;;5.82;2.58;;;23.00;84.00;;;;;;5060404;28;20603;-61
2022/06/03 10:35:13;;;;;;;4.13;3.03;;;23.00;85.40;;;;;;5060251;28;20199;-58
2022/06/03 10:38:03;;;;;;;6.18;3.03;;;23.00;84.60;;;;;;5059356;28;20204;-59
2022/06/03 10:40:29;;;;;;;6.68;3.30;;;23.10;83.00;;;;;;5059267;28;20181;-60
2022/06/03 10:43:00;;;;;;;6.15;2.92;;;23.20;84.50;;;;;;5059720;28;20209;-59
2022/06/03 10:45:36;;;;;;;8.77;3.15;;;23.10;80.60;;;;;;5060032;28;20279;-64
2022/06/03 10:48:22;;;;;;;12.00;3.17;;;23.20;80.60;;;;;;5059847;28;20182;-60
2022/06/03 10:50:48;;;;;;;10.52;5.03;;;23.40;81.90;;;;;;5059922;28;20639;-61
2022/06/03 11:01:52;;;;;;;8.40;2.38;;;23.90;78.50;;;;;;5060422;28;20309;-60
2022/06/03 11:04:37;;;;;;;12.55;2.95;;;23.90;80.00;;;;;;5059740;28;20254;-60
2022/06/03 11:07:24;;;;;;;21.52;10.18;;;24.00;77.90;;;;;;5057423;28;20538;-60
2022/06/03 11:10:08;;;;;;;10.23;3.40;;;24.30;78.40;;;;;;5050739;28;20293;-63
2022/06/03 11:12:34;;;;;;;10.02;4.28;;;24.80;76.20;;;;;;5060100;28;20182;-58
2022/06/03 11:15:00;;;;;;;5.78;2.80;;;25.30;76.50;;;;;;5059856;28;20229;-60
2022/06/03 11:17:36;;;;;;;9.85;3.08;;;25.80;74.70;;;;;;5058931;28;20627;-60
2022/06/03 11:20:29;;;;;;;8.07;2.88;;;26.30;75.10;;;;;;5057393;28;20502;-61
2022/06/03 11:22:56;;;;;;;7.28;2.95;;;26.80;74.30;;;;;;5059412;28;20614;-60
2022/06/03 11:25:28;;;;;;;6.25;3.35;;;28.30;69.30;;;;;;5059099;28;20595;-60
2022/06/03 11:28:05;;;;;;;11.68;2.97;;;29.80;64.40;;;;;;5059161;28;20180;-60
2022/06/03 11:30:49;;;;;;;7.95;2.88;;;30.70;61.90;;;;;;5059201;28;20660;-59
2022/06/03 11:33:25;;;;;;;8.50;3.60;;;32.10;56.40;;;;;;5059462;28;20234;-58
2022/06/03 11:36:04;;;;;;;12.82;3.00;;;32.80;55.60;;;;;;5058374;28;20638;-63
2022/06/03 11:38:58;;;;;;;6.43;2.85;;;33.60;52.70;;;;;;5059263;28;20218;-60
2022/06/03 11:41:37;;;;;;;6.03;2.28;;;34.30;49.20;;;;;;5057955;28;20198;-60
2022/06/03 11:44:32;;;;;;;8.95;3.08;;;34.60;47.80;;;;;;5059882;28;20646;-58
2022/06/03 11:47:05;;;;;;;18.63;10.13;;;35.10;46.60;;;;;;5059681;28;20177;-56
2022/06/03 11:49:33;;;;;;;6.07;2.10;;;35.20;47.50;;;;;;5059056;28;20177;-56
2022/06/03 11:52:00;;;;;;;11.63;3.75;;;35.90;43.80;;;;;;5058997;28;20198;-54
2022/06/03 11:54:27;;;;;;;5.20;2.50;;;36.00;44.20;;;;;;5059012;28;20640;-58
2022/06/03 11:56:54;;;;;;;7.55;2.50;;;35.60;43.60;;;;;;5059313;28;20251;-55
2022/06/03 11:59:19;;;;;;;8.50;2.50;;;35.10;44.10;;;;;;5059148;28;20599;-53
2022/06/03 12:02:20;;;;;;;7.20;2.42;;;35.70;44.80;;;;;;5059157;28;20786;-59
2022/06/03 12:04:51;;;;;;;9.63;2.30;;;36.30;43.00;;;;;;5057356;28;20595;-63
2022/06/03 12:07:34;;;;;;;8.20;2.63;;;35.80;41.90;;;;;;5059252;28;20174;-60
2022/06/03 12:10:06;;;;;;;17.98;3.28;;;36.60;42.30;;;;;;5059204;28;20224;-60
2022/06/03 12:15:28;;;;;;;16.40;2.88;;;38.00;40.10;;;;;;5061856;28;20284;-60
2022/06/03 12:17:54;;;;;;;9.85;3.45;;;37.70;39.80;;;;;;5061363;28;20550;-62
2022/06/03 12:20:32;;;;;;;23.90;3.65;;;38.40;40.00;;;;;;5062914;28;20186;-59
2022/06/03 12:23:19;;;;;;;8.00;2.88;;;39.30;38.20;;;;;;5062175;28;20757;-58
2022/06/03 12:25:53;;;;;;;18.02;3.72;;;39.20;36.50;;;;;;5060070;28;20239;-58
2022/06/03 12:28:39;;;;;;;30.90;5.55;;;39.70;37.20;;;;;;5062758;28;20199;-59
2022/06/03 12:31:21;;;;;;;13.23;2.92;;;39.90;36.40;;;;;;5061837;28;20706;-59
2022/06/03 12:34:21;;;;;;;18.33;3.97;;;38.90;35.90;;;;;;5061822;28;20221;-57
2022/06/03 12:36:53;;;;;;;13.15;3.20;;;38.20;38.50;;;;;;5061323;28;20198;-60
2022/06/03 12:39:19;;;;;;;21.60;4.13;;;38.80;38.80;;;;;;5062755;28;20212;-60
2022/06/03 12:41:44;;;;;;;49.47;7.80;;;38.90;38.50;;;;;;5061775;28;20228;-59
2022/06/03 12:44:41;;;;;;;6.35;2.58;;;39.60;38.50;;;;;;5062131;28;20193;-59
2022/06/03 12:47:36;;;;;;;9.00;3.50;;;41.10;36.60;;;;;;5060510;28;20258;-60
2022/06/03 12:50:05;;;;;;;9.70;3.00;;;41.70;34.20;;;;;;5060588;28;20641;-61
2022/06/03 12:52:31;;;;;;;3.45;2.20;;;41.20;35.00;;;;;;5062294;28;20189;-62
2022/06/03 12:55:06;;;;;;;8.98;2.33;;;40.90;34.90;;;;;;5061877;28;20221;-61
2022/06/03 12:57:44;;;;;;;7.32;3.00;;;40.30;35.80;;;;;;5062780;28;20652;-60
2022/06/03 13:00:32;;;;;;;8.98;2.60;;;40.40;35.60;;;;;;5062250;28;20196;-60
2022/06/03 13:03:04;;;;;;;14.07;2.40;;;41.30;33.00;;;;;;5062066;28;20527;-58
2022/06/03 13:05:38;;;;;;;8.00;3.13;;;40.70;33.90;;;;;;5062116;28;20185;-59
2022/06/03 13:08:26;;;;;;;8.68;2.75;;;41.60;33.30;;;;;;5062243;28;20261;-59
2022/06/03 13:11:09;;;;;;;9.40;3.50;;;41.70;33.00;;;;;;5061533;28;20323;-60
2022/06/03 13:14:00;;;;;;;10.43;2.20;;;41.60;33.50;;;;;;5061799;28;20208;-59
2022/06/03 13:16:33;;;;;;;8.07;3.03;;;41.30;32.90;;;;;;5058021;28;20208;-61
2022/06/03 13:19:20;;;;;;;10.77;4.05;;;41.10;34.20;;;;;;5061683;28;20221;-60
2022/06/03 13:21:59;;;;;;;20.42;3.83;;;40.80;33.40;;;;;;5060754;28;20196;-60
2022/06/03 13:24:48;;;;;;;10.27;3.53;;;41.00;33.80;;;;;;5061283;28;20251;-61
2022/06/03 13:27:23;;;;;;;14.90;4.13;;;41.70;33.80;;;;;;5060268;28;20198;-59
2022/06/03 13:29:49;;;;;;;10.68;3.30;;;41.60;33.20;;;;;;5061056;28;20191;-59
2022/06/03 13:32:21;;;;;;;7.55;3.47;;;41.60;33.80;;;;;;5060971;28;21082;-59
2022/06/03 13:34:47;;;;;;;9.32;3.28;;;41.50;32.40;;;;;;5061164;28;20677;-60
2022/06/03 13:37:30;;;;;;;11.57;3.92;;;41.30;32.90;;;;;;5061574;28;20186;-60
2022/06/03 13:39:56;;;;;;;11.63;3.00;;;41.80;32.50;;;;;;5059758;28;20564;-63
2022/06/03 13:45:22;;;;;;;20.50;5.30;;;43.20;30.30;;;;;;5061090;28;20246;-60
2022/06/03 13:47:52;;;;;;;5.28;2.72;;;43.10;30.50;;;;;;5061690;28;20219;-60
2022/06/03 13:50:27;;;;;;;6.53;3.58;;;42.50;31.00;;;;;;5061682;28;20248;-54
2022/06/03 13:52:56;;;;;;;10.00;3.35;;;41.70;31.00;;;;;;5061168;28;20185;-63
2022/06/03 13:55:37;;;;;;;7.63;2.97;;;41.80;30.90;;;;;;5061094;28;20189;-61
2022/06/03 13:58:08;;;;;;;10.52;3.30;;;40.70;31.30;;;;;;5059893;28;20623;-61
2022/06/03 14:00:59;;;;;;;21.30;5.07;;;41.70;32.20;;;;;;5061141;28;20173;-59
2022/06/03 14:03:27;;;;;;;8.73;3.60;;;42.20;30.80;;;;;;5060354;28;20632;-62
2022/06/03 14:06:18;;;;;;;6.97;2.53;;;42.40;30.50;;;;;;5059744;28;20647;-63
2022/06/03 14:09:12;;;;;;;8.50;3.30;;;41.80;31.40;;;;;;5060243;28;20180;-59
2022/06/03 14:11:47;;;;;;;5.70;2.83;;;41.90;30.70;;;;;;5060882;28;20536;-61
2022/06/03 14:14:21;;;;;;;5.82;2.55;;;42.40;30.30;;;;;;5060486;28;20217;-61
2022/06/03 14:16:58;;;;;;;12.95;3.75;;;42.50;31.50;;;;;;5060618;28;20196;-58
2022/06/03 14:19:41;;;;;;;8.70;3.03;;;43.50;30.20;;;;;;5058183;28;20637;-63
2022/06/03 14:22:33;;;;;;;9.77;3.30;;;43.70;29.90;;;;;;5060610;28;20177;-60
2022/06/03 14:25:24;;;;;;;15.85;5.30;;;43.20;30.10;;;;;;5058051;28;20784;-64